Time;durP1;ratioP1;P1;durP2;ratioP2;P2;SDS_P1;SDS_P2;PMS_P1;PMS_P2;Temp;Humidity;BMP_temperature;BMP_pressure;BME280_temperature;BME280_humidity;BME280_pressure;Samples;Min_cycle;Max_cycle;Signal;HPM_P1;HPM_P2
2022/10/22 00:00:17;;;;;;;5.45;2.60;;;16.50;75.70;;;;;;4986718;28;20396;-74
2022/10/22 00:02:43;;;;;;;3.70;1.13;;;16.50;75.20;;;;;;4982869;28;20042;-73
2022/10/22 00:05:09;;;;;;;3.53;1.42;;;16.40;75.00;;;;;;4981170;28;20037;-74
2022/10/22 00:07:35;;;;;;;5.30;1.85;;;16.40;75.10;;;;;;4980865;28;20035;-77
2022/10/22 00:10:04;;;;;;;5.72;1.70;;;16.40;75.10;;;;;;4988107;28;20018;-77
2022/10/22 00:12:30;;;;;;;9.02;2.42;;;16.40;75.10;;;;;;4984577;28;20033;-74
2022/10/22 00:14:56;;;;;;;6.93;2.00;;;16.40;75.20;;;;;;4985662;28;20026;-75
2022/10/22 00:17:22;;;;;;;6.88;1.73;;;16.30;75.00;;;;;;4982684;28;20019;-73
2022/10/22 00:19:48;;;;;;;6.40;2.33;;;16.40;75.20;;;;;;4980782;28;20028;-77
2022/10/22 00:22:14;;;;;;;11.82;3.30;;;16.30;75.10;;;;;;4968103;28;20027;-77
2022/10/22 00:24:40;;;;;;;4.80;1.80;;;16.40;75.30;;;;;;4975242;28;20066;-72
2022/10/22 00:27:08;;;;;;;7.13;2.17;;;16.40;75.30;;;;;;4984308;28;20034;-74
2022/10/22 00:29:34;;;;;;;4.70;1.45;;;16.30;75.10;;;;;;4978102;28;20068;-74
2022/10/22 00:32:00;;;;;;;5.57;1.35;;;16.40;75.30;;;;;;4985947;28;20058;-74
2022/10/22 00:34:26;;;;;;;4.45;1.70;;;16.30;75.10;;;;;;4985253;28;20026;-77
2022/10/22 00:36:52;;;;;;;6.10;1.38;;;16.30;75.20;;;;;;4987458;28;20042;-77
2022/10/22 00:39:20;;;;;;;4.82;1.88;;;16.30;75.20;;;;;;4969148;28;20037;-74
2022/10/22 00:41:48;;;;;;;4.18;1.15;;;16.40;75.40;;;;;;4983861;28;20203;-79
2022/10/22 00:44:53;;;;;;;3.60;1.00;;;16.40;75.40;;;;;;4989148;28;20504;-76
2022/10/22 00:47:21;;;;;;;6.65;1.42;;;16.40;75.40;;;;;;4998652;28;20046;-75
2022/10/22 00:49:47;;;;;;;7.30;2.28;;;16.40;75.30;;;;;;4984735;28;20037;-76
2022/10/22 00:52:13;;;;;;;4.87;1.60;;;16.40;75.30;;;;;;4985133;28;20498;-74
2022/10/22 00:54:41;;;;;;;4.88;1.30;;;16.40;75.40;;;;;;4987362;28;20054;-73
2022/10/22 00:57:07;;;;;;;4.22;1.67;;;16.40;75.30;;;;;;4987866;28;20042;-77
2022/10/22 00:59:33;;;;;;;3.78;1.05;;;16.40;75.30;;;;;;4985984;28;20022;-76
2022/10/22 01:01:59;;;;;;;4.35;1.08;;;16.40;75.30;;;;;;4991401;28;20027;-77
2022/10/22 01:04:25;;;;;;;3.47;1.17;;;16.40;75.40;;;;;;4988428;28;20072;-76
2022/10/22 01:06:51;;;;;;;4.07;1.27;;;16.40;75.30;;;;;;4971074;28;20080;-78
2022/10/22 01:09:48;;;;;;;4.65;1.10;;;16.40;75.30;;;;;;4985827;28;20038;-79
2022/10/22 01:12:22;;;;;;;5.00;1.00;;;16.40;75.40;;;;;;4986191;28;20556;-76
2022/10/22 01:15:14;;;;;;;;;;;16.40;75.30;;;;;;4984260;28;20506;-78
2022/10/22 01:17:55;;;;;;;6.10;1.08;;;16.40;75.20;;;;;;4981172;28;19910;-76
2022/10/22 01:20:30;;;;;;;4.43;1.58;;;16.40;75.10;;;;;;4993287;28;20067;-79
2022/10/22 01:23:20;;;;;;;4.80;1.50;;;16.40;75.20;;;;;;4982857;28;20035;-77
2022/10/22 01:26:02;;;;;;;2.70;1.27;;;16.40;75.30;;;;;;4984723;28;20030;-77
2022/10/22 01:28:44;;;;;;;7.13;1.55;;;16.40;75.20;;;;;;4980021;28;20030;-77
2022/10/22 01:31:14;;;;;;;5.20;1.25;;;16.30;75.10;;;;;;4989478;28;20074;-78
2022/10/22 01:33:42;;;;;;;6.32;1.33;;;16.40;75.30;;;;;;4989157;28;20050;-77
2022/10/22 01:36:09;;;;;;;4.75;1.10;;;16.40;75.30;;;;;;4987627;28;20053;-77
2022/10/22 01:38:36;;;;;;;2.80;1.02;;;16.30;75.20;;;;;;4987744;28;20308;-73
2022/10/22 01:41:03;;;;;;;3.38;0.90;;;16.40;75.30;;;;;;4990238;28;20088;-79
2022/10/22 01:43:29;;;;;;;3.05;1.38;;;16.40;75.40;;;;;;4996587;28;20046;-77
2022/10/22 01:46:01;;;;;;;2.38;0.90;;;16.30;75.20;;;;;;5001818;22;21312;-78
2022/10/22 01:48:33;;;;;;;4.85;1.10;;;16.30;75.20;;;;;;4993968;28;20037;-77
2022/10/22 01:51:34;;;;;;;6.75;1.50;;;16.30;75.20;;;;;;4994478;28;20049;-78
2022/10/22 01:54:40;;;;;;;3.88;0.77;;;16.40;75.40;;;;;;5009255;28;20053;-79
2022/10/22 01:57:15;;;;;;;1.95;1.00;;;16.30;75.20;;;;;;4939247;28;20045;-78
2022/10/22 02:00:08;;;;;;;5.35;1.88;;;16.40;75.30;;;;;;4980137;28;20038;-78
2022/10/22 02:03:01;;;;;;;4.80;1.70;;;16.30;75.10;;;;;;5009013;28;20064;-80
2022/10/22 02:05:31;;;;;;;6.78;1.30;;;16.30;75.10;;;;;;5008240;28;20054;-78
2022/10/22 02:08:13;;;;;;;3.15;0.77;;;16.30;75.10;;;;;;5013134;28;20026;-77
2022/10/22 02:10:42;;;;;;;3.63;1.42;;;16.20;75.00;;;;;;5008035;28;20086;-77
2022/10/22 02:13:12;;;;;;;3.72;1.15;;;16.20;75.00;;;;;;5008732;28;20116;-78
2022/10/22 02:15:42;;;;;;;3.17;0.93;;;16.20;75.00;;;;;;4976534;28;20042;-77
2022/10/22 02:18:09;;;;;;;8.50;1.23;;;16.20;75.10;;;;;;5011658;28;20149;-77
2022/10/22 02:20:39;;;;;;;3.58;1.13;;;16.10;74.90;;;;;;4998905;28;20030;-76
2022/10/22 02:23:08;;;;;;;4.53;1.20;;;16.10;75.00;;;;;;5005217;28;20034;-76
2022/10/22 02:25:39;;;;;;;6.22;1.75;;;16.10;75.00;;;;;;4993839;28;20069;-78
2022/10/22 02:28:22;;;;;;;5.53;1.60;;;16.00;74.90;;;;;;5011480;28;20034;-77
2022/10/22 02:30:52;;;;;;;;;;;16.00;75.20;;;;;;4994761;28;20036;-76
2022/10/22 02:33:30;;;;;;;8.25;1.52;;;16.00;75.00;;;;;;4993166;28;19918;-76
2022/10/22 02:35:58;;;;;;;4.68;0.95;;;15.90;74.70;;;;;;4994355;28;20036;-78
2022/10/22 02:38:25;;;;;;;6.95;1.63;;;15.90;74.80;;;;;;4990698;28;20030;-80
2022/10/22 02:40:52;;;;;;;5.55;1.30;;;15.80;74.70;;;;;;4993931;28;20255;-78
2022/10/22 02:43:19;;;;;;;5.13;1.15;;;15.80;74.70;;;;;;4987787;28;20255;-78
2022/10/22 02:45:46;;;;;;;5.13;1.27;;;15.70;74.60;;;;;;4992132;28;20038;-77
2022/10/22 02:48:12;;;;;;;6.78;1.52;;;15.70;74.70;;;;;;4992497;28;20058;-78
2022/10/22 02:50:37;;;;;;;5.18;1.15;;;15.70;74.70;;;;;;4987027;28;20536;-78
2022/10/22 02:53:03;;;;;;;7.13;1.48;;;15.70;74.70;;;;;;4992536;28;20042;-78
2022/10/22 02:55:30;;;;;;;6.38;1.77;;;15.60;74.60;;;;;;4993440;28;20030;-80
2022/10/22 02:57:57;;;;;;;2.38;0.93;;;15.60;74.70;;;;;;5002668;28;20042;-78
2022/10/22 03:00:23;;;;;;;7.85;1.27;;;15.60;74.70;;;;;;4994626;28;20517;-78
2022/10/22 03:02:48;;;;;;;8.40;2.33;;;15.50;74.60;;;;;;4976316;28;20084;-79
2022/10/22 03:05:14;;;;;;;7.97;1.40;;;15.50;74.60;;;;;;4983831;28;20041;-80
2022/10/22 03:07:40;;;;;;;7.97;1.75;;;15.50;74.60;;;;;;4987502;28;20635;-80
2022/10/22 03:10:07;;;;;;;4.15;1.30;;;15.40;74.50;;;;;;4993425;28;20088;-79
2022/10/22 03:12:33;;;;;;;7.35;1.67;;;15.50;74.70;;;;;;4993567;28;20041;-78
2022/10/22 03:14:58;;;;;;;3.80;1.23;;;15.40;74.60;;;;;;4990473;28;20026;-79
2022/10/22 03:17:24;;;;;;;4.95;1.30;;;15.40;74.60;;;;;;4986911;28;20019;-79
2022/10/22 03:19:50;;;;;;;7.95;1.35;;;15.40;74.60;;;;;;4975596;28;20030;-79
2022/10/22 03:22:24;;;;;;;4.47;0.90;;;15.30;74.40;;;;;;4988372;28;20126;-79
2022/10/22 03:24:54;;;;;;;6.35;1.20;;;15.30;74.50;;;;;;4981321;28;20018;-79
2022/10/22 03:27:21;;;;;;;5.00;0.88;;;15.30;74.50;;;;;;4986241;28;20125;-79
2022/10/22 03:29:50;;;;;;;4.43;1.85;;;15.20;74.30;;;;;;4992867;28;20671;-79
2022/10/22 03:32:16;;;;;;;3.58;0.80;;;15.20;74.30;;;;;;4991996;28;20031;-79
2022/10/22 03:34:42;;;;;;;6.78;1.55;;;15.20;74.40;;;;;;4992714;28;20081;-80
2022/10/22 03:37:08;;;;;;;3.78;1.40;;;15.20;74.40;;;;;;4993189;28;20044;-79
2022/10/22 03:39:36;;;;;;;4.38;1.10;;;15.10;74.30;;;;;;4990254;28;20042;-78
2022/10/22 03:42:03;;;;;;;6.00;1.30;;;15.10;74.30;;;;;;4988769;28;20030;-78
2022/10/22 03:44:30;;;;;;;3.22;0.90;;;15.10;74.30;;;;;;4976207;28;20045;-79
2022/10/22 03:46:56;;;;;;;4.85;1.00;;;15.00;74.20;;;;;;4991131;28;20054;-77
2022/10/22 03:49:23;;;;;;;5.57;1.10;;;15.00;74.30;;;;;;4986168;28;20038;-78
2022/10/22 03:51:49;;;;;;;4.95;1.23;;;14.90;74.10;;;;;;4985998;28;20031;-78
2022/10/22 03:54:17;;;;;;;7.65;2.13;;;14.90;74.20;;;;;;5007500;28;20042;-78
2022/10/22 03:56:43;;;;;;;4.10;1.27;;;14.90;74.30;;;;;;4993406;28;20034;-79
2022/10/22 03:59:09;;;;;;;6.07;1.75;;;14.80;74.10;;;;;;4993271;28;20405;-77
2022/10/22 04:01:35;;;;;;;6.25;1.38;;;14.80;74.20;;;;;;4997939;28;20239;-76
2022/10/22 04:04:04;;;;;;;5.53;1.60;;;14.80;74.20;;;;;;4990391;28;20512;-77
2022/10/22 04:06:30;;;;;;;5.45;1.52;;;14.80;74.20;;;;;;4992159;28;20741;-78
2022/10/22 04:08:56;;;;;;;5.70;1.75;;;14.70;74.10;;;;;;4993298;28;20096;-78
2022/10/22 04:11:22;;;;;;;5.57;1.52;;;14.60;73.90;;;;;;4986718;28;20559;-80
2022/10/22 04:13:48;;;;;;;7.68;1.67;;;14.60;74.00;;;;;;4991411;28;20038;-79
2022/10/22 04:16:22;;;;;;;6.68;1.70;;;14.60;74.10;;;;;;4990486;28;20062;-78
2022/10/22 04:18:49;;;;;;;6.53;1.85;;;14.50;73.90;;;;;;4991375;28;20034;-78
2022/10/22 04:21:18;;;;;;;3.25;1.45;;;14.60;74.10;;;;;;4984552;28;20885;-78
2022/10/22 04:23:49;;;;;;;6.68;2.05;;;14.50;74.00;;;;;;4993000;28;20050;-79
2022/10/22 04:26:16;;;;;;;4.97;1.38;;;14.50;74.00;;;;;;4991195;28;20036;-77
2022/10/22 04:28:43;;;;;;;3.95;1.27;;;14.50;74.00;;;;;;4987999;28;20103;-79
2022/10/22 04:31:12;;;;;;;8.25;1.77;;;14.40;73.90;;;;;;4992053;28;20030;-79
2022/10/22 04:33:38;;;;;;;8.45;1.42;;;14.40;74.00;;;;;;4990453;28;20572;-79
2022/10/22 04:36:10;;;;;;;5.63;1.25;;;14.40;74.00;;;;;;4989898;28;20072;-79
2022/10/22 04:38:37;;;;;;;8.15;2.83;;;14.40;74.00;;;;;;4992193;28;20053;-79
2022/10/22 04:41:15;;;;;;;5.32;1.40;;;14.40;74.00;;;;;;4988620;28;20507;-80
2022/10/22 04:43:42;;;;;;;7.22;1.48;;;14.30;73.90;;;;;;4989802;28;20053;-78
2022/10/22 04:46:10;;;;;;;4.97;1.50;;;14.40;74.00;;;;;;4992718;28;20512;-78
2022/10/22 04:48:38;;;;;;;9.35;2.20;;;14.40;74.10;;;;;;4993122;28;20088;-78
2022/10/22 04:51:07;;;;;;;10.93;1.67;;;14.30;73.90;;;;;;4991145;28;20022;-80
2022/10/22 04:53:34;;;;;;;6.40;1.80;;;14.30;73.90;;;;;;4995124;28;20046;-79
2022/10/22 04:56:28;;;;;;;9.07;2.40;;;14.30;73.90;;;;;;4981769;28;20805;-78
2022/10/22 04:59:01;;;;;;;8.20;1.80;;;14.30;74.00;;;;;;4988075;28;20038;-79
2022/10/22 05:01:29;;;;;;;5.25;1.08;;;14.30;73.90;;;;;;4982201;28;20070;-76
2022/10/22 05:03:58;;;;;;;5.75;1.27;;;14.30;73.90;;;;;;4991033;28;20412;-78
2022/10/22 05:06:25;;;;;;;5.03;1.20;;;14.30;73.90;;;;;;4989442;28;20054;-78
2022/10/22 05:08:58;;;;;;;7.45;1.40;;;14.20;73.70;;;;;;4985271;28;20038;-78
2022/10/22 05:11:27;;;;;;;12.10;2.90;;;14.20;73.80;;;;;;4988022;28;20027;-77
2022/10/22 05:13:55;;;;;;;8.27;1.80;;;14.20;73.80;;;;;;4990155;28;20060;-78
2022/10/22 05:16:22;;;;;;;8.18;2.03;;;14.10;73.70;;;;;;4990322;28;20030;-76
2022/10/22 05:18:48;;;;;;;5.15;1.63;;;14.10;73.70;;;;;;4995582;28;20453;-78
2022/10/22 05:21:17;;;;;;;5.60;1.60;;;14.10;73.70;;;;;;4990953;28;20027;-82
2022/10/22 05:23:44;;;;;;;7.82;2.63;;;14.10;74.30;;;;;;4990088;28;20034;-83
2022/10/22 05:26:12;;;;;;;5.95;1.63;;;14.10;73.80;;;;;;4993786;28;20443;-80
2022/10/22 05:28:39;;;;;;;10.70;2.30;;;14.00;73.60;;;;;;4993794;28;20061;-82
2022/10/22 05:31:07;;;;;;;7.97;2.38;;;14.00;73.60;;;;;;4991368;28;20018;-80
2022/10/22 05:33:34;;;;;;;4.75;1.42;;;13.90;73.40;;;;;;4981549;28;20115;-81
2022/10/22 05:36:01;;;;;;;6.18;1.80;;;13.90;73.50;;;;;;5001504;28;20030;-82
2022/10/22 05:38:27;;;;;;;5.97;1.95;;;13.90;73.50;;;;;;4994800;28;20038;-85
2022/10/22 05:41:11;;;;;;;5.85;1.48;;;13.90;73.50;;;;;;4975882;28;20079;-84
2022/10/22 05:43:38;;;;;;;5.07;1.55;;;13.90;74.20;;;;;;4989128;28;20524;-77
2022/10/22 05:46:12;;;;;;;5.78;1.30;;;13.80;73.40;;;;;;4995469;28;20087;-76
2022/10/22 05:48:39;;;;;;;7.43;1.40;;;13.80;73.50;;;;;;4992527;28;20037;-82
2022/10/22 05:51:07;;;;;;;6.63;1.52;;;13.80;73.50;;;;;;4973133;28;20042;-84
2022/10/22 05:53:34;;;;;;;7.45;1.77;;;13.80;73.50;;;;;;4990989;28;20032;-83
2022/10/22 05:56:07;;;;;;;8.27;1.95;;;13.70;73.40;;;;;;4991918;28;20022;-79
2022/10/22 05:58:33;;;;;;;11.43;2.35;;;13.70;73.60;;;;;;4994324;28;20034;-78
2022/10/22 06:01:11;;;;;;;10.52;2.28;;;13.70;74.00;;;;;;4998777;28;20030;-77
2022/10/22 06:03:38;;;;;;;6.53;1.58;;;13.70;74.30;;;;;;4990098;28;20088;-82
2022/10/22 06:06:18;;;;;;;10.13;1.70;;;13.70;74.30;;;;;;4987539;28;20049;-81
2022/10/22 06:08:49;;;;;;;8.80;1.80;;;13.70;74.40;;;;;;4992217;28;20029;-81
2022/10/22 06:11:17;;;;;;;6.50;1.73;;;13.70;74.40;;;;;;4958474;28;20073;-81
2022/10/22 06:13:44;;;;;;;10.55;2.60;;;13.70;74.40;;;;;;4988369;28;20060;-79
2022/10/22 06:16:11;;;;;;;6.00;1.80;;;13.60;74.30;;;;;;4989357;28;20537;-83
2022/10/22 06:18:39;;;;;;;12.38;2.78;;;13.60;74.40;;;;;;4994118;28;20081;-82
2022/10/22 06:21:08;;;;;;;8.63;2.03;;;13.60;74.40;;;;;;4989913;28;20457;-78
2022/10/22 06:23:36;;;;;;;9.13;2.45;;;13.60;74.50;;;;;;4995959;28;20046;-84
2022/10/22 06:26:04;;;;;;;8.82;1.85;;;13.60;74.60;;;;;;4988328;28;20084;-80
2022/10/22 06:28:30;;;;;;;4.63;1.05;;;13.60;74.70;;;;;;4994154;28;20057;-80
2022/10/22 06:30:57;;;;;;;7.55;1.95;;;13.60;74.70;;;;;;5000449;28;20038;-85
2022/10/22 06:33:24;;;;;;;9.13;2.60;;;13.60;74.70;;;;;;4989777;28;20038;-88
2022/10/22 06:35:50;;;;;;;12.65;3.45;;;13.70;74.90;;;;;;4994394;28;20478;-82
2022/10/22 06:38:16;;;;;;;12.07;2.42;;;13.70;75.00;;;;;;4992776;28;20065;-82
2022/10/22 06:40:43;;;;;;;8.00;1.60;;;13.80;75.50;;;;;;4993398;28;20030;-84
2022/10/22 06:43:11;;;;;;;12.35;2.63;;;13.80;75.60;;;;;;4989425;28;20041;-82
2022/10/22 06:45:38;;;;;;;14.43;2.50;;;13.80;75.80;;;;;;5007861;28;20041;-84
2022/10/22 06:48:05;;;;;;;16.08;2.33;;;13.90;76.30;;;;;;4992593;28;20054;-79
2022/10/22 06:50:33;;;;;;;13.20;2.95;;;14.00;76.60;;;;;;4992521;28;20030;-83
2022/10/22 06:52:59;;;;;;;11.40;2.65;;;14.10;77.00;;;;;;4988482;28;20381;-81
2022/10/22 06:55:25;;;;;;;9.57;2.47;;;14.20;77.20;;;;;;4988361;28;20042;-83
2022/10/22 06:57:51;;;;;;;18.17;4.18;;;14.30;77.60;;;;;;5009726;28;20469;-83
2022/10/22 07:00:17;;;;;;;10.85;2.53;;;14.40;77.90;;;;;;4991686;28;20393;-83
2022/10/22 07:02:43;;;;;;;7.35;2.45;;;14.60;78.40;;;;;;4988361;28;20035;-86
2022/10/22 07:05:10;;;;;;;10.80;2.50;;;14.70;78.70;;;;;;4995156;28;20344;-84
2022/10/22 07:07:36;;;;;;;9.80;2.63;;;14.80;78.90;;;;;;4990762;28;20038;-85
2022/10/22 07:10:04;;;;;;;10.48;3.28;;;14.90;79.10;;;;;;4988236;28;20394;-87
2022/10/22 07:12:32;;;;;;;18.80;4.35;;;15.00;79.20;;;;;;4974266;28;20026;-87
2022/10/22 07:14:58;;;;;;;14.90;2.65;;;15.10;79.30;;;;;;4990066;28;20041;-90
2022/10/22 07:17:27;;;;;;;16.63;3.20;;;15.10;79.20;;;;;;4994056;28;20031;-86
2022/10/22 07:19:53;;;;;;;12.52;2.65;;;15.20;79.40;;;;;;4987967;28;20773;-80
2022/10/22 07:22:19;;;;;;;6.95;1.70;;;15.20;79.40;;;;;;4993390;28;20038;-82
2022/10/22 07:24:45;;;;;;;10.38;2.60;;;15.20;79.30;;;;;;4993862;28;20070;-84
2022/10/22 07:27:13;;;;;;;9.00;2.30;;;15.20;79.30;;;;;;4991668;28;20022;-78
2022/10/22 07:29:39;;;;;;;8.07;2.08;;;15.20;79.40;;;;;;4978410;28;20117;-80
2022/10/22 07:32:06;;;;;;;10.38;3.10;;;15.20;79.50;;;;;;4991513;28;20030;-78
2022/10/22 07:34:33;;;;;;;12.73;4.00;;;15.20;79.70;;;;;;4985453;28;20076;-80
2022/10/22 07:37:01;;;;;;;8.73;2.28;;;15.20;79.80;;;;;;4986329;28;20027;-82
2022/10/22 07:39:29;;;;;;;9.13;2.35;;;15.20;79.90;;;;;;4971305;28;20038;-81
2022/10/22 07:41:54;;;;;;;10.60;2.58;;;15.30;80.20;;;;;;4987475;28;20034;-83
2022/10/22 07:44:20;;;;;;;12.98;3.35;;;15.30;80.20;;;;;;4988694;28;20037;-83
2022/10/22 07:46:46;;;;;;;9.10;2.13;;;15.40;80.40;;;;;;4996161;28;20046;-82
2022/10/22 07:49:12;;;;;;;8.23;2.58;;;15.40;80.40;;;;;;4994840;28;20452;-81
2022/10/22 07:51:38;;;;;;;11.52;2.40;;;15.40;80.40;;;;;;4987076;28;20101;-81
2022/10/22 07:54:04;;;;;;;11.88;3.22;;;15.40;80.30;;;;;;4986021;28;20042;-82
2022/10/22 07:56:30;;;;;;;8.18;2.95;;;15.50;80.50;;;;;;5001106;28;20010;-82
2022/10/22 07:58:57;;;;;;;12.82;3.10;;;15.50;80.40;;;;;;5021834;28;20073;-83
2022/10/22 08:01:23;;;;;;;9.32;2.58;;;15.50;80.40;;;;;;5014795;28;20030;-82
2022/10/22 08:03:48;;;;;;;11.68;2.78;;;15.50;80.30;;;;;;5004276;28;20345;-81
2022/10/22 08:06:15;;;;;;;7.18;2.15;;;15.50;80.30;;;;;;5011500;28;20022;-80
2022/10/22 08:08:42;;;;;;;7.80;2.20;;;15.60;80.30;;;;;;5007229;28;20054;-81
2022/10/22 08:11:09;;;;;;;10.43;2.22;;;15.60;80.20;;;;;;5007090;28;20078;-81
2022/10/22 08:13:36;;;;;;;11.32;2.00;;;15.60;80.10;;;;;;5009470;28;20158;-82
2022/10/22 08:16:03;;;;;;;7.50;2.58;;;15.70;80.20;;;;;;4984020;28;20157;-82
2022/10/22 08:18:29;;;;;;;13.27;3.17;;;15.80;80.30;;;;;;4971065;28;20034;-82
2022/10/22 08:20:55;;;;;;;12.68;2.00;;;15.80;80.30;;;;;;4985100;28;20160;-82
2022/10/22 08:23:22;;;;;;;11.95;3.35;;;15.90;80.20;;;;;;4985416;28;20052;-80
2022/10/22 08:25:48;;;;;;;11.52;2.35;;;15.90;80.00;;;;;;4990813;28;20041;-80
2022/10/22 08:28:14;;;;;;;11.63;3.63;;;16.00;80.00;;;;;;4988080;28;20086;-80
2022/10/22 08:30:43;;;;;;;9.77;2.35;;;16.00;79.90;;;;;;4987391;28;20049;-81
2022/10/22 08:33:09;;;;;;;8.85;2.20;;;16.10;79.90;;;;;;4986362;28;20052;-81
2022/10/22 08:35:35;;;;;;;8.45;2.83;;;16.10;79.80;;;;;;5000366;28;20034;-81
2022/10/22 08:38:01;;;;;;;9.65;2.50;;;16.20;79.80;;;;;;4985561;28;20038;-81
2022/10/22 08:40:33;;;;;;;8.50;2.45;;;16.20;79.60;;;;;;4987002;28;20437;-81
2022/10/22 08:43:08;;;;;;;9.20;2.25;;;16.20;79.50;;;;;;4988664;28;20041;-82
2022/10/22 08:46:02;;;;;;;6.03;1.58;;;16.20;79.40;;;;;;4989884;28;20030;-81
2022/10/22 08:48:31;;;;;;;14.45;3.13;;;16.30;79.50;;;;;;4986739;28;20068;-81
2022/10/22 08:50:58;;;;;;;10.63;2.67;;;16.30;79.40;;;;;;4987520;28;20084;-81
2022/10/22 08:53:44;;;;;;;12.38;2.65;;;16.30;79.20;;;;;;5005096;28;20030;-80
2022/10/22 08:56:13;;;;;;;9.73;2.50;;;16.40;79.40;;;;;;4991491;28;20030;-82
2022/10/22 08:59:18;;;;;;;7.68;2.33;;;16.50;79.40;;;;;;4976244;28;20030;-80
2022/10/22 09:01:50;;;;;;;9.90;2.65;;;16.50;79.20;;;;;;5000231;28;20038;-80
2022/10/22 09:04:26;;;;;;;11.27;2.47;;;16.60;79.10;;;;;;4992408;28;20049;-81
2022/10/22 09:06:56;;;;;;;8.20;2.75;;;16.70;79.10;;;;;;4987766;28;20276;-78
2022/10/22 09:09:28;;;;;;;8.27;1.88;;;16.70;79.00;;;;;;4976465;28;20038;-78
2022/10/22 09:11:57;;;;;;;9.73;2.05;;;16.80;78.90;;;;;;4987715;28;20042;-82
2022/10/22 09:14:24;;;;;;;10.60;2.05;;;16.90;78.90;;;;;;4998084;28;20045;-80
2022/10/22 09:17:09;;;;;;;7.97;2.53;;;16.90;78.70;;;;;;4989461;28;20435;-81
2022/10/22 09:20:05;;;;;;;10.65;2.75;;;17.00;78.70;;;;;;4998259;28;20034;-80
2022/10/22 09:22:37;;;;;;;10.57;2.88;;;17.10;78.70;;;;;;4972223;28;20034;-80
2022/10/22 09:25:24;;;;;;;8.23;2.10;;;17.10;78.40;;;;;;4987258;28;20349;-79
2022/10/22 09:27:53;;;;;;;8.38;1.70;;;17.20;78.30;;;;;;4992287;28;20030;-81
2022/10/22 09:30:22;;;;;;;7.03;2.25;;;17.30;78.40;;;;;;4992766;28;20037;-81
2022/10/22 09:33:00;;;;;;;9.77;3.15;;;17.30;78.10;;;;;;4990411;28;20063;-80
2022/10/22 09:35:26;;;;;;;8.35;2.47;;;17.40;78.10;;;;;;4993053;28;20030;-80
2022/10/22 09:37:55;;;;;;;8.88;2.15;;;17.50;78.00;;;;;;4991339;28;20056;-81
2022/10/22 09:40:24;;;;;;;11.52;2.83;;;17.50;77.90;;;;;;4991528;28;20477;-80
2022/10/22 09:42:51;;;;;;;11.18;2.85;;;17.50;77.80;;;;;;5002958;28;20041;-78
2022/10/22 09:45:23;;;;;;;10.13;2.00;;;17.50;77.60;;;;;;4993201;28;20030;-83
2022/10/22 09:47:49;;;;;;;9.82;2.08;;;17.60;77.70;;;;;;4973279;28;20054;-82
2022/10/22 09:50:58;;;;;;;5.75;1.98;;;17.60;77.60;;;;;;4987713;28;20541;-81
2022/10/22 09:53:41;;;;;;;10.15;2.70;;;17.60;77.30;;;;;;4966695;28;20068;-82
2022/10/22 09:56:40;;;;;;;8.50;1.98;;;17.60;77.10;;;;;;5007194;28;20097;-83
2022/10/22 09:59:14;;;;;;;10.27;2.28;;;17.60;77.00;;;;;;4992419;28;20041;-81
2022/10/22 10:01:41;;;;;;;12.40;3.35;;;17.70;77.00;;;;;;4992359;28;20371;-81
2022/10/22 10:04:09;;;;;;;8.35;2.08;;;17.60;76.80;;;;;;4975365;28;20045;-82
2022/10/22 10:06:39;;;;;;;8.32;2.22;;;17.60;76.60;;;;;;4983914;28;20523;-82
2022/10/22 10:09:20;;;;;;;9.85;2.28;;;17.60;76.50;;;;;;5013264;28;20034;-80
2022/10/22 10:12:01;;;;;;;8.57;2.13;;;17.60;76.40;;;;;;4998203;28;20042;-81
2022/10/22 10:14:40;;;;;;;8.82;2.35;;;17.60;76.20;;;;;;4985950;28;20042;-82
2022/10/22 10:17:24;;;;;;;11.02;3.83;;;17.60;76.20;;;;;;4987683;28;20155;-82
2022/10/22 10:20:22;;;;;;;10.15;2.67;;;17.60;76.00;;;;;;4998015;28;20309;-81
2022/10/22 10:22:48;;;;;;;6.63;2.10;;;17.60;75.80;;;;;;4985712;28;20037;-81
2022/10/22 10:25:32;;;;;;;11.73;2.38;;;17.60;75.80;;;;;;4988999;28;20038;-82
2022/10/22 10:28:16;;;;;;;9.57;2.63;;;17.60;76.20;;;;;;4983889;28;20034;-81
2022/10/22 10:30:54;;;;;;;6.63;2.17;;;17.70;75.70;;;;;;4994172;28;20018;-80
2022/10/22 10:33:36;;;;;;;8.43;2.15;;;17.70;75.60;;;;;;4991030;28;20030;-81
2022/10/22 10:36:18;;;;;;;8.68;2.03;;;17.80;75.60;;;;;;4984721;28;20041;-81
2022/10/22 10:39:03;;;;;;;5.68;1.60;;;17.80;75.30;;;;;;4990681;28;20057;-80
2022/10/22 10:41:48;;;;;;;10.27;3.80;;;17.80;75.10;;;;;;4990192;28;20026;-80
2022/10/22 10:44:20;;;;;;;8.23;1.80;;;17.80;74.90;;;;;;4984115;28;20489;-80
2022/10/22 10:47:08;;;;;;;6.97;1.45;;;17.80;74.90;;;;;;4993539;28;20071;-82
2022/10/22 10:49:35;;;;;;;9.60;3.13;;;17.90;75.10;;;;;;4991659;28;20030;-84
2022/10/22 10:52:32;;;;;;;10.02;3.13;;;18.00;75.10;;;;;;4990488;28;20186;-82
2022/10/22 10:55:28;;;;;;;8.48;1.98;;;18.10;74.80;;;;;;4988385;28;20041;-82
2022/10/22 10:58:19;;;;;;;5.32;1.65;;;18.40;74.80;;;;;;4989038;28;20026;-82
2022/10/22 11:00:55;;;;;;;9.73;2.30;;;18.50;74.50;;;;;;4999650;28;20034;-82
2022/10/22 11:03:47;;;;;;;7.18;1.98;;;18.80;74.40;;;;;;4980332;28;20030;-81
2022/10/22 11:06:19;;;;;;;3.38;1.63;;;19.00;74.20;;;;;;4990310;28;20057;-80
2022/10/22 11:09:04;;;;;;;6.55;1.40;;;19.10;74.00;;;;;;4991200;28;20205;-79
2022/10/22 11:12:01;;;;;;;9.32;1.80;;;19.20;73.70;;;;;;4990692;28;20033;-80
2022/10/22 11:14:34;;;;;;;5.95;1.52;;;19.40;73.80;;;;;;4986852;28;20318;-79
2022/10/22 11:17:12;;;;;;;8.20;2.05;;;19.50;73.60;;;;;;4987651;28;20030;-79
2022/10/22 11:20:03;;;;;;;4.82;1.80;;;19.70;73.60;;;;;;4989694;28;20033;-81
2022/10/22 11:22:40;;;;;;;4.75;1.77;;;19.80;73.40;;;;;;4978133;28;20523;-80
2022/10/22 11:25:17;;;;;;;7.05;2.22;;;20.00;73.40;;;;;;4988678;28;20196;-82
2022/10/22 11:27:52;;;;;;;4.80;1.60;;;20.20;73.30;;;;;;4989052;28;20084;-82
2022/10/22 11:30:24;;;;;;;9.00;3.03;;;20.30;73.00;;;;;;4985162;28;20041;-81
2022/10/22 11:33:18;;;;;;;8.55;1.80;;;20.50;72.90;;;;;;4979548;28;20033;-80
2022/10/22 11:35:46;;;;;;;7.30;2.08;;;20.70;72.70;;;;;;4975108;28;20441;-79
2022/10/22 11:38:25;;;;;;;6.53;1.45;;;20.90;72.80;;;;;;4987131;28;20041;-82
2022/10/22 11:40:57;;;;;;;5.65;1.65;;;21.10;72.50;;;;;;4965839;28;20038;-89
2022/10/22 11:43:25;;;;;;;11.10;2.90;;;21.20;72.30;;;;;;4989267;28;20026;-85
2022/10/22 11:46:23;;;;;;;5.03;1.40;;;21.30;72.10;;;;;;4991337;28;20034;-85
2022/10/22 11:49:12;;;;;;;3.28;1.40;;;21.50;72.00;;;;;;4990337;28;20494;-84
2022/10/22 11:51:40;;;;;;;3.95;1.42;;;21.70;71.80;;;;;;4968966;28;20500;-85
2022/10/22 11:54:30;;;;;;;5.07;1.52;;;21.80;71.80;;;;;;4997554;28;20046;-80
2022/10/22 11:57:14;;;;;;;4.88;1.60;;;22.00;71.70;;;;;;4989483;28;20042;-79
2022/10/22 11:59:48;;;;;;;4.05;1.40;;;22.10;71.40;;;;;;4971364;28;20031;-83
2022/10/22 12:02:37;;;;;;;6.15;2.05;;;22.10;71.40;;;;;;5010478;28;20026;-83
2022/10/22 12:05:36;;;;;;;4.95;1.75;;;22.10;71.20;;;;;;4987083;28;20034;-84
2022/10/22 12:08:18;;;;;;;5.95;2.15;;;22.00;70.90;;;;;;4985412;28;20178;-82
2022/10/22 12:11:09;;;;;;;5.70;1.83;;;22.10;71.30;;;;;;4989983;28;20038;-82
2022/10/22 12:14:13;;;;;;;7.10;1.90;;;22.10;71.00;;;;;;4981844;28;20494;-84
2022/10/22 12:16:50;;;;;;;5.05;1.95;;;22.20;70.90;;;;;;4987105;28;20045;-84
2022/10/22 12:19:20;;;;;;;6.18;2.15;;;22.30;71.00;;;;;;4986787;28;20596;-83
2022/10/22 12:21:51;;;;;;;5.30;1.92;;;22.30;70.70;;;;;;4985179;28;20034;-86
2022/10/22 12:24:20;;;;;;;9.38;2.90;;;22.40;70.80;;;;;;4989747;28;20034;-86
2022/10/22 12:26:48;;;;;;;9.85;3.40;;;22.40;71.40;;;;;;4986865;28;20104;-84
2022/10/22 12:29:15;;;;;;;6.22;2.47;;;22.40;71.00;;;;;;4988893;28;20042;-86
2022/10/22 12:31:44;;;;;;;9.43;3.22;;;22.40;71.10;;;;;;4971305;28;20027;-86
2022/10/22 12:34:21;;;;;;;7.00;2.53;;;22.50;71.30;;;;;;4989285;28;20064;-86
2022/10/22 12:36:49;;;;;;;9.30;3.15;;;22.50;71.20;;;;;;4987809;28;20042;-88
2022/10/22 12:39:21;;;;;;;9.65;4.45;;;22.50;71.10;;;;;;4982424;28;20030;-80
2022/10/22 12:41:47;;;;;;;8.60;3.10;;;22.60;71.20;;;;;;4985074;28;21906;-81
2022/10/22 12:44:16;;;;;;;9.80;3.00;;;22.60;71.20;;;;;;4990091;28;20348;-80
2022/10/22 12:46:46;;;;;;;8.77;3.50;;;22.70;71.30;;;;;;4995624;28;20134;-82
2022/10/22 12:49:21;;;;;;;7.00;3.10;;;22.70;71.20;;;;;;4972958;28;20041;-83
2022/10/22 12:51:48;;;;;;;9.35;3.60;;;22.80;71.10;;;;;;4987419;28;20030;-84
2022/10/22 12:54:28;;;;;;;7.30;2.92;;;22.80;71.10;;;;;;4988138;28;20116;-90
2022/10/22 12:56:55;;;;;;;8.88;3.33;;;22.90;71.20;;;;;;4986178;28;20030;-85
2022/10/22 12:59:36;;;;;;;7.38;3.45;;;23.00;71.30;;;;;;4990595;28;20034;-85
2022/10/22 13:02:23;;;;;;;8.07;3.20;;;23.10;71.40;;;;;;4999040;28;20054;-86
2022/10/22 13:05:14;;;;;;;10.00;3.17;;;23.20;71.50;;;;;;4984373;28;20034;-83
2022/10/22 13:07:43;;;;;;;5.47;2.10;;;23.40;71.70;;;;;;4986263;28;20486;-90
2022/10/22 13:10:24;;;;;;;4.85;2.60;;;23.50;71.60;;;;;;4982764;28;20035;-91